createdAt,value
2022-07-26T00:02:02.697Z,22.16
2022-07-26T00:04:29.597Z,22.24
2022-07-26T00:06:57.725Z,22.30
2022-07-26T00:09:24.494Z,22.33
2022-07-26T00:11:51.911Z,22.36
2022-07-26T00:14:18.714Z,22.35
2022-07-26T00:16:45.486Z,22.38
2022-07-26T00:19:12.338Z,22.47
2022-07-26T00:21:40.763Z,22.52
2022-07-26T00:24:09.710Z,22.48
2022-07-26T00:26:36.425Z,22.32
2022-07-26T00:29:04.965Z,22.08
2022-07-26T00:31:32.448Z,21.94
2022-07-26T00:33:59.187Z,21.84
2022-07-26T00:36:27.495Z,21.85
2022-07-26T00:38:54.202Z,21.89
2022-07-26T00:41:22.281Z,21.93
2022-07-26T00:43:56.739Z,21.97
2022-07-26T00:46:23.718Z,22.00
2022-07-26T00:48:50.699Z,22.03
2022-07-26T00:51:17.695Z,22.01
2022-07-26T00:53:45.603Z,21.90
2022-07-26T00:56:14.484Z,21.82
2022-07-26T00:58:42.366Z,21.79
2022-07-26T01:01:11.670Z,21.75
2022-07-26T01:03:39.717Z,21.69
2022-07-26T01:06:07.402Z,21.63
2022-07-26T01:08:34.353Z,21.60
2022-07-26T01:11:01.149Z,21.57
2022-07-26T01:13:30.728Z,21.59
2022-07-26T01:16:03.503Z,21.66
2022-07-26T01:18:30.129Z,21.65
2022-07-26T01:21:01.913Z,21.65
2022-07-26T01:23:41.859Z,21.68
2022-07-26T01:26:08.636Z,21.67
2022-07-26T01:28:37.403Z,21.70
2022-07-26T01:31:04.203Z,21.70
2022-07-26T01:33:30.979Z,21.76
2022-07-26T01:35:58.168Z,21.86
2022-07-26T01:38:25.087Z,21.92
2022-07-26T01:40:53.416Z,22.00
2022-07-26T01:43:20.135Z,22.10
2022-07-26T01:45:47.345Z,22.16
2022-07-26T01:48:14.223Z,22.17
2022-07-26T01:50:41.407Z,22.20
2022-07-26T01:53:08.253Z,22.21
2022-07-26T01:55:35.194Z,22.22
2022-07-26T01:58:05.547Z,22.29
2022-07-26T02:00:32.654Z,22.31
2022-07-26T02:02:59.691Z,22.30
2022-07-26T02:05:26.667Z,22.34
2022-07-26T02:07:53.482Z,22.40
2022-07-26T02:10:20.264Z,22.42
2022-07-26T02:12:48.527Z,22.39
2022-07-26T02:15:16.835Z,22.34
2022-07-26T02:17:43.586Z,22.24
2022-07-26T02:20:10.643Z,22.14
2022-07-26T02:22:37.348Z,22.15
2022-07-26T02:25:05.473Z,22.09
2022-07-26T02:27:32.735Z,21.99
2022-07-26T02:29:59.418Z,21.84
2022-07-26T02:32:27.427Z,21.71
2022-07-26T02:34:54.226Z,21.66
2022-07-26T02:37:20.971Z,21.63
2022-07-26T02:39:47.630Z,21.65
2022-07-26T02:42:14.740Z,21.70
2022-07-26T02:44:41.794Z,21.79
2022-07-26T02:47:08.483Z,21.82
2022-07-26T02:49:40.796Z,21.91
2022-07-26T02:52:07.806Z,21.94
2022-07-26T02:54:34.460Z,21.97
2022-07-26T02:57:01.219Z,21.87
2022-07-26T02:59:28.082Z,21.79
2022-07-26T03:01:54.828Z,21.70
2022-07-26T03:04:21.573Z,21.66
2022-07-26T03:06:49.989Z,21.64
2022-07-26T03:09:16.801Z,21.61
2022-07-26T03:11:43.470Z,21.60
2022-07-26T03:14:10.589Z,21.63
2022-07-26T03:16:37.556Z,21.62
2022-07-26T03:19:04.226Z,21.63
2022-07-26T03:21:31.220Z,21.71
2022-07-26T03:23:59.219Z,21.74
2022-07-26T03:26:25.886Z,21.79
2022-07-26T03:28:53.091Z,21.86
2022-07-26T03:31:19.936Z,21.91
2022-07-26T03:33:46.693Z,21.94
2022-07-26T03:36:15.466Z,21.98
2022-07-26T03:38:42.633Z,21.99
2022-07-26T03:41:13.445Z,21.88
2022-07-26T03:43:55.680Z,21.77
2022-07-26T03:46:22.383Z,21.66
2022-07-26T03:48:49.259Z,21.53
2022-07-26T03:51:15.970Z,21.41
2022-07-26T03:53:42.635Z,21.37
2022-07-26T03:56:29.098Z,21.36
2022-07-26T03:58:55.935Z,21.39
2022-07-26T04:01:22.666Z,21.43
2022-07-26T04:03:49.366Z,21.46
2022-07-26T04:06:17.022Z,21.50
2022-07-26T04:08:44.371Z,21.52
2022-07-26T04:11:12.604Z,21.56
2022-07-26T04:13:39.400Z,21.62
2022-07-26T04:16:07.084Z,21.73
2022-07-26T04:18:34.002Z,21.77
2022-07-26T04:21:00.972Z,21.77
2022-07-26T04:23:27.799Z,21.75
2022-07-26T04:25:54.735Z,21.70
2022-07-26T04:28:23.210Z,21.73
2022-07-26T04:30:49.965Z,21.76
2022-07-26T04:33:16.659Z,21.75
2022-07-26T04:35:43.320Z,21.71
2022-07-26T04:38:10.073Z,21.61
2022-07-26T04:40:40.449Z,21.65
2022-07-26T04:43:08.604Z,21.64
2022-07-26T04:45:38.372Z,21.65
2022-07-26T04:48:06.545Z,21.60
2022-07-26T04:50:33.224Z,21.54
2022-07-26T04:53:04.991Z,21.42
2022-07-26T04:55:32.123Z,21.33
2022-07-26T04:57:58.817Z,21.37
2022-07-26T05:00:25.781Z,21.43
2022-07-26T05:02:57.234Z,21.46
2022-07-26T05:05:25.332Z,21.46
2022-07-26T05:07:54.339Z,21.48
2022-07-26T05:10:22.499Z,21.52
2022-07-26T05:12:49.854Z,21.56
2022-07-26T05:15:16.674Z,21.57
2022-07-26T05:17:44.060Z,21.55
2022-07-26T05:20:15.025Z,21.45
2022-07-26T05:22:42.137Z,21.43
2022-07-26T05:25:09.283Z,21.50
2022-07-26T05:27:35.961Z,21.53
2022-07-26T05:30:03.340Z,21.56
2022-07-26T05:32:30.050Z,21.58
2022-07-26T05:34:56.739Z,21.67
2022-07-26T05:37:24.854Z,21.76
2022-07-26T05:39:51.514Z,21.80
2022-07-26T05:42:18.423Z,21.84
2022-07-26T05:44:45.520Z,21.83
2022-07-26T05:47:13.069Z,21.83
2022-07-26T05:49:40.891Z,21.83
2022-07-26T05:52:07.846Z,21.86
2022-07-26T05:54:50.941Z,21.91
2022-07-26T05:57:18.206Z,21.93
2022-07-26T05:59:46.644Z,22.01
2022-07-26T06:02:13.926Z,22.03
2022-07-26T06:04:41.116Z,22.01
2022-07-26T06:07:08.056Z,21.97
2022-07-26T06:09:34.816Z,21.93
2022-07-26T06:12:03.019Z,21.90
2022-07-26T06:14:29.826Z,21.88
2022-07-26T06:16:56.772Z,21.88
2022-07-26T06:19:23.543Z,21.90
2022-07-26T06:21:50.391Z,21.92
2022-07-26T06:24:17.185Z,21.96
2022-07-26T06:26:44.541Z,22.01
2022-07-26T06:29:12.616Z,22.01
2022-07-26T06:31:39.353Z,21.99
2022-07-26T06:34:06.463Z,22.04
2022-07-26T06:36:36.633Z,22.12
2022-07-26T06:39:03.591Z,22.21
2022-07-26T06:41:30.331Z,22.24
2022-07-26T06:43:57.136Z,22.24
2022-07-26T06:46:25.413Z,22.29
2022-07-26T06:48:56.786Z,22.32
2022-07-26T06:51:24.351Z,22.35
2022-07-26T06:53:51.356Z,22.39
2022-07-26T06:56:18.627Z,22.43
2022-07-26T06:58:45.461Z,22.46
2022-07-26T07:01:12.308Z,22.49
2022-07-26T07:03:40.394Z,22.50
2022-07-26T07:06:07.285Z,22.52
2022-07-26T07:08:34.424Z,22.50
2022-07-26T07:11:01.941Z,22.51
2022-07-26T07:13:28.689Z,22.52
2022-07-26T07:15:55.310Z,22.54
2022-07-26T07:18:21.983Z,22.55
2022-07-26T07:20:49.992Z,22.56
2022-07-26T07:23:16.665Z,22.59
2022-07-26T07:25:44.912Z,22.58
2022-07-26T07:28:11.821Z,22.55
2022-07-26T07:30:38.486Z,22.51
2022-07-26T07:33:05.374Z,22.48
2022-07-26T07:35:32.952Z,22.50
2022-07-26T07:38:01.253Z,22.50
2022-07-26T07:40:30.054Z,22.49
2022-07-26T07:42:57.064Z,22.45
2022-07-26T07:45:23.986Z,22.43
2022-07-26T07:47:50.669Z,22.42
2022-07-26T07:50:17.438Z,22.42
2022-07-26T07:52:45.005Z,22.41
2022-07-26T07:55:36.609Z,22.40
2022-07-26T07:57:59.692Z,22.35
2022-07-26T08:00:27.033Z,22.37
2022-07-26T08:02:54.393Z,22.39
2022-07-26T08:05:21.605Z,22.42
2022-07-26T08:07:48.753Z,22.44
2022-07-26T08:10:17.171Z,22.41
2022-07-26T08:12:44.483Z,22.38
2022-07-26T08:15:12.329Z,22.37
2022-07-26T08:17:41.950Z,22.35
2022-07-26T08:20:15.822Z,22.30
2022-07-26T08:22:42.742Z,22.23
2022-07-26T08:25:10.171Z,22.19
2022-07-26T08:27:41.056Z,22.20
2022-07-26T08:30:09.150Z,22.18
2022-07-26T08:32:35.839Z,22.19
2022-07-26T08:35:17.307Z,22.20
2022-07-26T08:37:46.603Z,22.19
2022-07-26T08:40:13.598Z,22.18
2022-07-26T08:42:52.381Z,22.18
2022-07-26T08:45:23.011Z,22.14
2022-07-26T08:48:16.285Z,22.15
2022-07-26T08:50:40.130Z,22.17
2022-07-26T08:53:09.272Z,22.18
2022-07-26T08:56:04.221Z,22.16
2022-07-26T08:58:24.683Z,22.11
2022-07-26T09:01:04.586Z,22.08
2022-07-26T09:03:32.161Z,22.03
2022-07-26T09:06:11.483Z,21.91
2022-07-26T09:08:38.272Z,21.77
2022-07-26T09:11:26.950Z,21.79
2022-07-26T09:13:57.349Z,21.81
2022-07-26T09:16:24.417Z,21.84
2022-07-26T09:18:51.685Z,21.89
2022-07-26T09:21:29.120Z,21.94
2022-07-26T09:23:56.659Z,21.99
2022-07-26T09:26:25.675Z,22.04
2022-07-26T09:29:05.281Z,22.11
2022-07-26T09:31:32.541Z,22.19
2022-07-26T09:34:00.104Z,22.32
2022-07-26T09:36:27.848Z,22.44
2022-07-26T09:38:58.273Z,22.49
2022-07-26T09:41:30.288Z,22.45
2022-07-26T09:44:00.545Z,22.43
2022-07-26T09:46:29.879Z,22.50
2022-07-26T09:49:13.428Z,22.64
2022-07-26T09:51:41.508Z,22.74
2022-07-26T09:54:09.697Z,22.85
2022-07-26T09:56:45.300Z,22.90
2022-07-26T09:59:13.891Z,22.90
2022-07-26T10:01:42.215Z,22.91
2022-07-26T10:04:09.483Z,22.85
2022-07-26T10:06:36.421Z,22.77
2022-07-26T10:09:03.849Z,22.73
2022-07-26T10:11:44.398Z,22.74
2022-07-26T10:14:45.615Z,22.73
2022-07-26T10:17:31.510Z,22.63
2022-07-26T10:20:02.819Z,22.54
2022-07-26T10:22:34.186Z,22.52
2022-07-26T10:25:45.164Z,22.50
2022-07-26T10:28:23.912Z,22.47
2022-07-26T10:30:50.665Z,22.45
2022-07-26T10:33:22.525Z,22.42
2022-07-26T10:35:50.621Z,22.42
2022-07-26T10:38:24.347Z,22.39
2022-07-26T10:41:01.821Z,22.31
2022-07-26T10:43:40.782Z,22.25
2022-07-26T10:46:26.987Z,22.26
2022-07-26T10:48:58.906Z,22.16
2022-07-26T10:51:29.581Z,22.13
2022-07-26T10:54:00.046Z,22.08
2022-07-26T10:56:32.632Z,22.02
2022-07-26T10:59:00.080Z,22.00
2022-07-26T11:01:32.886Z,21.95
2022-07-26T11:03:59.862Z,21.87
2022-07-26T11:06:32.320Z,21.85
2022-07-26T11:09:09.535Z,21.84
2022-07-26T11:11:36.186Z,21.91
2022-07-26T11:14:08.008Z,21.95
2022-07-26T11:16:39.631Z,21.90
2022-07-26T11:19:15.477Z,21.95
2022-07-26T11:21:43.760Z,21.99
2022-07-26T11:24:11.141Z,22.04
2022-07-26T11:26:42.260Z,22.14
2022-07-26T11:29:09.117Z,22.20
2022-07-26T11:31:51.420Z,22.25
2022-07-26T11:34:26.568Z,22.24
2022-07-26T11:36:56.275Z,22.22
2022-07-26T11:39:24.118Z,22.22
2022-07-26T11:41:52.565Z,22.26
2022-07-26T11:44:21.139Z,22.25
2022-07-26T11:46:49.091Z,22.30
2022-07-26T11:49:17.975Z,22.41
2022-07-26T11:51:52.700Z,22.56
2022-07-26T11:54:21.682Z,22.66
2022-07-26T11:56:53.896Z,22.67
2022-07-26T11:59:21.313Z,22.62
2022-07-26T12:01:49.644Z,22.67
2022-07-26T12:04:21.570Z,22.78
2022-07-26T12:06:48.807Z,22.85
2022-07-26T12:09:30.553Z,22.88
2022-07-26T12:11:57.665Z,22.84
2022-07-26T12:14:28.445Z,22.89
2022-07-26T12:16:55.336Z,22.98
2022-07-26T12:19:29.925Z,23.15
2022-07-26T12:21:59.208Z,23.38
2022-07-26T12:24:43.216Z,23.88
2022-07-26T12:27:13.332Z,24.28
2022-07-26T12:29:41.809Z,24.52
2022-07-26T12:32:12.717Z,24.67
2022-07-26T12:34:41.193Z,24.65
2022-07-26T12:37:16.864Z,24.50
2022-07-26T12:40:07.338Z,24.47
2022-07-26T12:42:35.664Z,24.62
2022-07-26T12:45:03.820Z,24.70
2022-07-26T12:47:30.520Z,24.81
2022-07-26T12:49:57.286Z,24.91
2022-07-26T12:52:24.167Z,25.14
2022-07-26T12:54:53.355Z,25.33
2022-07-26T12:57:20.558Z,25.36
2022-07-26T12:59:48.323Z,25.33
2022-07-26T13:02:16.424Z,25.33
2022-07-26T13:04:43.301Z,25.38
2022-07-26T13:07:10.127Z,25.41
2022-07-26T13:09:36.918Z,25.40
2022-07-26T13:12:06.778Z,25.41
2022-07-26T13:14:35.147Z,25.43
2022-07-26T13:17:03.082Z,25.42
2022-07-26T13:19:31.020Z,25.45
2022-07-26T13:21:59.148Z,25.55
2022-07-26T13:24:27.943Z,25.59
2022-07-26T13:26:56.072Z,25.54
2022-07-26T13:29:24.176Z,25.49
2022-07-26T13:31:55.632Z,25.56
2022-07-26T13:34:26.190Z,25.65
2022-07-26T13:36:53.733Z,25.65
2022-07-26T13:39:20.459Z,25.61
2022-07-26T13:41:47.247Z,25.51
2022-07-26T13:44:15.005Z,25.43
2022-07-26T13:46:43.200Z,25.42
2022-07-26T13:49:10.013Z,25.37
2022-07-26T13:51:57.178Z,25.34
2022-07-26T13:54:26.226Z,25.29
2022-07-26T13:56:53.577Z,25.24
2022-07-26T13:59:20.750Z,25.17
2022-07-26T14:01:49.104Z,25.12
2022-07-26T14:04:16.487Z,25.03
2022-07-26T14:06:43.416Z,24.94
2022-07-26T14:09:11.190Z,24.90
2022-07-26T14:11:38.781Z,24.86
2022-07-26T14:14:05.967Z,24.79
2022-07-26T14:16:32.948Z,24.72
2022-07-26T14:19:01.429Z,24.63
2022-07-26T14:21:29.439Z,24.45
2022-07-26T14:24:10.824Z,24.30
2022-07-26T14:26:37.816Z,24.24
2022-07-26T14:29:04.653Z,24.20
2022-07-26T14:31:32.436Z,24.09
2022-07-26T14:33:59.295Z,23.98
2022-07-26T14:36:27.451Z,23.91
2022-07-26T14:38:55.518Z,23.80
2022-07-26T14:41:22.714Z,23.74
2022-07-26T14:43:54.280Z,23.72
2022-07-26T14:46:22.736Z,23.66
2022-07-26T14:48:54.510Z,23.58
2022-07-26T14:51:22.131Z,23.50
2022-07-26T14:53:50.170Z,23.45
2022-07-26T14:56:16.897Z,23.44
2022-07-26T14:58:43.578Z,23.47
2022-07-26T15:01:10.835Z,23.45
2022-07-26T15:03:37.661Z,23.35
2022-07-26T15:06:04.998Z,23.30
2022-07-26T15:08:31.637Z,23.34
2022-07-26T15:10:59.943Z,23.33
2022-07-26T15:13:26.665Z,23.31
2022-07-26T15:15:53.363Z,23.34
2022-07-26T15:18:20.143Z,23.37
2022-07-26T15:20:47.049Z,23.40
2022-07-26T15:23:15.224Z,23.39
2022-07-26T15:25:41.956Z,23.37
2022-07-26T15:28:10.084Z,23.33
2022-07-26T15:30:37.257Z,23.31
2022-07-26T15:33:04.004Z,23.36
2022-07-26T15:35:30.940Z,23.43
2022-07-26T15:37:57.765Z,23.49
2022-07-26T15:40:25.206Z,23.49
2022-07-26T15:42:53.010Z,23.55
2022-07-26T15:45:21.923Z,23.62
2022-07-26T15:48:03.278Z,23.62
2022-07-26T15:50:35.464Z,23.63
2022-07-26T15:53:02.252Z,23.63
2022-07-26T15:55:28.919Z,23.65
2022-07-26T15:57:55.788Z,23.73
2022-07-26T16:00:23.855Z,23.78
2022-07-26T16:02:50.801Z,23.84
2022-07-26T16:05:17.716Z,23.87
2022-07-26T16:07:45.388Z,23.90
2022-07-26T16:10:13.793Z,23.88
2022-07-26T16:12:41.032Z,23.82
2022-07-26T16:15:10.128Z,23.77
2022-07-26T16:17:38.765Z,23.77
2022-07-26T16:20:07.300Z,23.71
2022-07-26T16:22:35.005Z,23.69
2022-07-26T16:25:01.785Z,23.66
2022-07-26T16:27:28.456Z,23.62
2022-07-26T16:29:55.102Z,23.61
2022-07-26T16:32:22.052Z,23.70
2022-07-26T16:34:50.053Z,23.80
2022-07-26T16:37:16.714Z,23.87
2022-07-26T16:39:43.548Z,23.92
2022-07-26T16:42:10.164Z,23.93
2022-07-26T16:44:36.855Z,23.91
2022-07-26T16:47:03.813Z,23.87
2022-07-26T16:49:30.629Z,23.83
2022-07-26T16:51:58.740Z,23.79
2022-07-26T16:54:25.433Z,23.76
2022-07-26T16:56:52.109Z,23.66
2022-07-26T16:59:19.003Z,23.60
2022-07-26T17:01:45.816Z,23.55
2022-07-26T17:04:12.576Z,23.50
2022-07-26T17:06:39.286Z,23.48
2022-07-26T17:09:07.441Z,23.44
2022-07-26T17:11:41.981Z,23.41
2022-07-26T17:14:08.957Z,23.40
2022-07-26T17:16:35.717Z,23.38
2022-07-26T17:19:02.438Z,23.40
2022-07-26T17:21:29.117Z,23.45
2022-07-26T17:23:55.921Z,23.48
2022-07-26T17:26:24.328Z,23.48
2022-07-26T17:28:50.993Z,23.51
2022-07-26T17:31:17.664Z,23.53
2022-07-26T17:33:44.461Z,23.54
2022-07-26T17:36:22.879Z,23.56
2022-07-26T17:38:49.946Z,23.55
2022-07-26T17:41:18.246Z,23.53
2022-07-26T17:43:47.193Z,23.50
2022-07-26T17:46:14.056Z,23.49
2022-07-26T17:48:41.743Z,23.48
2022-07-26T17:51:08.527Z,23.47
2022-07-26T17:53:35.224Z,23.48
2022-07-26T17:56:02.082Z,23.51
2022-07-26T17:58:29.752Z,23.54
2022-07-26T18:00:57.796Z,23.53
2022-07-26T18:03:24.539Z,23.49
2022-07-26T18:05:51.532Z,23.49
2022-07-26T18:08:18.282Z,23.50
2022-07-26T18:10:50.523Z,23.45
2022-07-26T18:13:17.885Z,23.38
2022-07-26T18:15:45.097Z,23.30
2022-07-26T18:18:14.593Z,23.24
2022-07-26T18:20:41.530Z,23.19
2022-07-26T18:23:08.294Z,23.19
2022-07-26T18:25:35.286Z,23.19
2022-07-26T18:28:06.899Z,23.22
2022-07-26T18:30:34.352Z,23.23
2022-07-26T18:33:01.274Z,23.27
2022-07-26T18:35:29.308Z,23.31
2022-07-26T18:37:56.111Z,23.31
2022-07-26T18:40:25.088Z,23.29
2022-07-26T18:42:52.756Z,23.25
2022-07-26T18:45:19.523Z,23.22
2022-07-26T18:47:46.712Z,23.20
2022-07-26T18:50:16.973Z,23.19
2022-07-26T18:52:46.500Z,23.20
2022-07-26T18:55:14.848Z,23.22
2022-07-26T18:57:43.693Z,23.24
2022-07-26T19:00:12.415Z,23.18
2022-07-26T19:02:39.126Z,23.14
2022-07-26T19:05:06.434Z,23.05
2022-07-26T19:07:37.557Z,22.98
2022-07-26T19:10:06.869Z,22.91
2022-07-26T19:12:33.847Z,22.82
2022-07-26T19:15:00.960Z,22.76
2022-07-26T19:17:30.257Z,22.72
2022-07-26T19:19:59.996Z,22.71
2022-07-26T19:22:26.852Z,22.71
2022-07-26T19:24:53.556Z,22.72
2022-07-26T19:27:21.649Z,22.74
2022-07-26T19:29:48.776Z,22.71
2022-07-26T19:32:15.847Z,22.66
2022-07-26T19:34:42.621Z,22.58
2022-07-26T19:37:09.442Z,22.51
2022-07-26T19:39:36.120Z,22.49
2022-07-26T19:42:03.137Z,22.47
2022-07-26T19:44:31.110Z,22.44
2022-07-26T19:46:58.190Z,22.38
2022-07-26T19:49:25.163Z,22.39
2022-07-26T19:51:51.978Z,22.41
2022-07-26T19:54:18.775Z,22.43
2022-07-26T19:56:45.635Z,22.47
2022-07-26T19:59:19.547Z,22.51
2022-07-26T20:01:52.854Z,22.52
2022-07-26T20:04:19.745Z,22.55
2022-07-26T20:06:46.485Z,22.50
2022-07-26T20:09:13.939Z,22.41
2022-07-26T20:11:41.276Z,22.33
2022-07-26T20:14:07.957Z,22.28
2022-07-26T20:16:34.756Z,22.29
2022-07-26T20:19:03.567Z,22.32
2022-07-26T20:21:30.178Z,22.32
2022-07-26T20:23:56.874Z,22.34
2022-07-26T20:26:23.907Z,22.35
2022-07-26T20:28:51.033Z,22.40
2022-07-26T20:31:17.893Z,22.42
2022-07-26T20:33:44.634Z,22.41
2022-07-26T20:36:13.419Z,22.43
2022-07-26T20:38:39.897Z,22.38
2022-07-26T20:41:06.668Z,22.35
2022-07-26T20:43:33.766Z,22.40
2022-07-26T20:46:02.096Z,22.38
2022-07-26T20:48:28.933Z,22.31
2022-07-26T20:50:55.594Z,22.24
2022-07-26T20:53:23.606Z,22.20
2022-07-26T20:55:50.388Z,22.18
2022-07-26T20:58:17.962Z,22.18
2022-07-26T21:00:44.622Z,22.13
2022-07-26T21:03:13.683Z,22.05
2022-07-26T21:05:40.329Z,21.95
2022-07-26T21:08:06.998Z,21.86
2022-07-26T21:10:35.308Z,21.80
2022-07-26T21:13:02.029Z,21.75
2022-07-26T21:15:29.068Z,21.68
2022-07-26T21:17:56.086Z,21.62
2022-07-26T21:20:23.328Z,21.57
2022-07-26T21:23:00.130Z,21.57
2022-07-26T21:25:36.349Z,21.55
2022-07-26T21:28:03.154Z,21.52
2022-07-26T21:30:29.803Z,21.47
2022-07-26T21:32:56.515Z,21.47
2022-07-26T21:35:23.233Z,21.47
2022-07-26T21:37:50.011Z,21.53
2022-07-26T21:40:16.698Z,21.56
2022-07-26T21:42:44.719Z,21.60
2022-07-26T21:45:11.534Z,21.63
2022-07-26T21:47:38.191Z,21.67
2022-07-26T21:50:05.570Z,21.73
2022-07-26T21:52:32.250Z,21.78
2022-07-26T21:54:58.901Z,21.80
2022-07-26T21:57:25.568Z,21.81
2022-07-26T21:59:53.539Z,21.77
2022-07-26T22:02:21.791Z,21.76
2022-07-26T22:04:48.644Z,21.78
2022-07-26T22:07:15.524Z,21.83
2022-07-26T22:09:42.260Z,21.80
2022-07-26T22:12:12.340Z,21.80
2022-07-26T22:14:39.112Z,21.81
2022-07-26T22:17:07.122Z,21.82
2022-07-26T22:19:33.825Z,21.85
2022-07-26T22:22:02.594Z,21.86
2022-07-26T22:24:29.325Z,21.87
2022-07-26T22:26:55.966Z,21.78
2022-07-26T22:29:22.634Z,21.74
2022-07-26T22:31:49.342Z,21.75
2022-07-26T22:34:17.382Z,21.74
2022-07-26T22:36:45.606Z,21.71
2022-07-26T22:39:12.955Z,21.68
2022-07-26T22:42:05.152Z,21.65
2022-07-26T22:44:26.516Z,21.63
2022-07-26T22:46:54.546Z,21.64
2022-07-26T22:49:22.671Z,21.61
2022-07-26T22:51:49.364Z,21.51
2022-07-26T22:54:16.059Z,21.44
2022-07-26T22:56:42.821Z,21.43
2022-07-26T22:59:09.827Z,21.45
2022-07-26T23:01:36.762Z,21.43
2022-07-26T23:04:04.985Z,21.36
2022-07-26T23:06:34.316Z,21.21
2022-07-26T23:09:00.984Z,21.14
2022-07-26T23:11:27.765Z,21.13
2022-07-26T23:13:59.058Z,21.17
2022-07-26T23:16:26.130Z,21.18
2022-07-26T23:18:52.837Z,21.19
2022-07-26T23:21:19.567Z,21.20
2022-07-26T23:23:47.618Z,21.22
2022-07-26T23:26:14.248Z,21.16
2022-07-26T23:28:40.972Z,21.03
2022-07-26T23:31:09.379Z,20.94
2022-07-26T23:33:50.515Z,20.92
2022-07-26T23:36:20.390Z,20.89
2022-07-26T23:38:48.409Z,20.87
2022-07-26T23:41:15.070Z,20.88
2022-07-26T23:43:41.757Z,20.91
2022-07-26T23:46:08.511Z,20.91
2022-07-26T23:48:35.248Z,20.90
2022-07-26T23:51:01.930Z,20.89
2022-07-26T23:53:28.632Z,20.89
2022-07-26T23:55:56.617Z,20.90
2022-07-26T23:58:23.275Z,20.88
